Hoboken Marine 1 — WDG8865 — position and weather

sailwx.info

Track history (hours):
 
Tides and Currents Weather Stations Pressure Air Temp Water Temp Dewpoint Dewpoint Depression Visibility Wind Speed Wind Dir Waves Ship Positions

Hoboken Marine 1

Owner: Hoboken Fire Dept, Hoboken, NJ. More information available from US FCC via Universal Licensing System.

Last reported at 2017-Sep-18 14:46 UTC. Time now 2017-Sep-19 22:20 UTC.
Position N 40°45' W 074°01'.

Length 9 m.

Type: SAR. MMSI: 367581860.

Date/timePositionNaut miles runAvg speedWind from/ knotsBaromVisibWave heightAir tempDewpointWater temp
2017-Sep-18 14:46N 40°45' W 074°01'0 0.0
2017-Sep-17 16:36N 40°45' W 074°01'0 1.4
2017-Sep-17 16:30N 40°45' W 074°01'3 5.3
2017-Sep-17 16:00N 40°43' W 074°02'0 0.2
2017-Sep-17 15:30N 40°43' W 074°03'3 5.0
2017-Sep-17 15:00N 40°45' W 074°01'1 1.5
2017-Sep-17 14:30N 40°44' W 074°01'1 0.0
2017-Sep-15 16:00N 40°45' W 074°01'917.4
2017-Sep-15 15:30N 40°38' W 074°09'1 2.2
2017-Sep-15 15:00N 40°39' W 074°10'817.2
2017-Sep-15 14:30N 40°44' W 074°01'1 0.0
2017-Sep-13 15:22N 40°45' W 074°01'0 0.3
2017-Sep-13 15:00N 40°45' W 074°01'0 0.7
2017-Sep-13 14:30N 40°45' W 074°01'0 0.9
2017-Sep-13 14:00N 40°45' W 074°01'0 0.0
2017-Sep-12 19:02N 40°45' W 074°01'0 0.0
2017-Sep-12 19:00N 40°45' W 074°01'3 5.2
2017-Sep-12 18:30N 40°43' W 074°02'1 1.3
2017-Sep-12 18:01N 40°42' W 074°02'2 4.7
2017-Sep-12 17:30N 40°44' W 074°01'1 0.0
2017-Sep-10 15:55N 40°45' W 074°01'3 7.7
2017-Sep-10 15:30N 40°48' W 073°59'3 6.5
2017-Sep-10 15:00N 40°45' W 074°01'0 0.0
2017-Sep-09 16:45N 40°45' W 074°01'2 8.1
2017-Sep-09 16:31N 40°43' W 074°01'0 0.6
2017-Sep-09 16:01N 40°43' W 074°02'2 3.9
2017-Sep-09 15:30N 40°45' W 074°01'  
Track history (hours):
 
Tides and Currents Weather Stations Pressure Air Temp Water Temp Dewpoint Dewpoint Depression Visibility Wind Speed Wind Dir Waves Ship Positions

Hoboken Marine 1

Owner: Hoboken Fire Dept, Hoboken, NJ. More information available from US FCC via Universal Licensing System.

Last reported at 2017-Sep-18 14:46 UTC. Time now 2017-Sep-19 22:20 UTC.
Position N 40°45' W 074°01'.

Length 9 m.

Type: SAR. MMSI: 367581860.

Date/timePositionNaut miles runAvg speedWind from/ knotsBaromVisibWave heightAir tempDewpointWater temp
2017-Sep-18 14:46N 40°45' W 074°01'0 0.0
2017-Sep-17 16:36N 40°45' W 074°01'0 1.4
2017-Sep-17 16:30N 40°45' W 074°01'3 5.3
2017-Sep-17 16:00N 40°43' W 074°02'0 0.2
2017-Sep-17 15:30N 40°43' W 074°03'3 5.0
2017-Sep-17 15:00N 40°45' W 074°01'1 1.5
2017-Sep-17 14:30N 40°44' W 074°01'1 0.0
2017-Sep-15 16:00N 40°45' W 074°01'917.4
2017-Sep-15 15:30N 40°38' W 074°09'1 2.2
2017-Sep-15 15:00N 40°39' W 074°10'817.2
2017-Sep-15 14:30N 40°44' W 074°01'1 0.0
2017-Sep-13 15:22N 40°45' W 074°01'0 0.3
2017-Sep-13 15:00N 40°45' W 074°01'0 0.7
2017-Sep-13 14:30N 40°45' W 074°01'0 0.9
2017-Sep-13 14:00N 40°45' W 074°01'0 0.0
2017-Sep-12 19:02N 40°45' W 074°01'0 0.0
2017-Sep-12 19:00N 40°45' W 074°01'3 5.2
2017-Sep-12 18:30N 40°43' W 074°02'1 1.3
2017-Sep-12 18:01N 40°42' W 074°02'2 4.7
2017-Sep-12 17:30N 40°44' W 074°01'1 0.0
2017-Sep-10 15:55N 40°45' W 074°01'3 7.7
2017-Sep-10 15:30N 40°48' W 073°59'3 6.5
2017-Sep-10 15:00N 40°45' W 074°01'0 0.0
2017-Sep-09 16:45N 40°45' W 074°01'2 8.1
2017-Sep-09 16:31N 40°43' W 074°01'0 0.6
2017-Sep-09 16:01N 40°43' W 074°02'2 3.9
2017-Sep-09 15:30N 40°45' W 074°01'  

Dump ship's entire track history